Date,TemperatureHighF,TemperatureAvgF,TemperatureLowF,DewpointHighF,DewpointAvgF,DewpointLowF,HumidityHigh,HumidityAvg,HumidityLow,PressureMaxIn,PressureMinIn,WindSpeedMaxMPH,WindSpeedAvgMPH,GustSpeedMaxMPH,PrecipitationSumIn
2013-4-1,70.7,55.6,42.1,51.0,42.8,29.0,100,67,33,30.03,29.80,4,1,11,0.00
2013-4-2,55.9,44.5,29.7,30.0,22.6,16.0,84,45,22,30.23,30.04,5,1,10,0.00
2013-4-3,56.6,42.5,27.0,29.0,20.1,15.0,86,47,20,30.42,30.22,5,1,9,0.00
2013-4-4,50.1,40.1,30.2,38.0,25.1,16.0,96,59,31,30.47,30.07,3,0,6,0.65
2013-4-5,63.2,47.8,37.6,43.0,37.9,34.0,97,74,35,30.09,29.90,4,1,11,0.26
2013-4-6,59.5,49.1,41.2,38.0,28.0,22.0,77,46,27,30.36,30.08,5,1,9,0.00
2013-4-7,72.4,56.2,30.9,44.0,38.9,29.0,95,57,33,30.35,30.10,7,1,8,0.00
2013-4-8,80.7,65.9,51.3,55.0,50.7,43.0,87,61,36,30.16,30.03,4,1,7,0.00
2013-4-9,86.4,71.8,57.8,58.0,55.3,53.0,88,59,33,30.16,30.03,5,1,6,0.00
2013-4-10,90.3,75.6,61.6,61.0,58.2,56.0,84,58,33,30.07,29.90,4,1,8,0.00
2013-4-11,85.4,73.7,63.1,62.0,59.7,58.0,85,63,42,29.96,29.80,6,1,10,0.00
2013-4-12,84.0,71.9,65.8,70.0,63.2,47.0,97,76,44,29.81,29.59,5,1,9,0.39
2013-4-13,72.6,61.9,47.3,52.0,43.8,39.0,90,55,30,29.99,29.73,3,1,6,0.00
2013-4-14,77.9,60.4,41.3,46.0,41.3,33.0,91,56,24,30.15,30.00,3,1,5,0.00
2013-4-15,67.8,58.5,52.6,57.0,52.8,41.0,96,82,49,30.31,30.12,6,0,9,0.15
2013-4-16,76.9,64.1,53.3,62.0,57.3,52.0,98,80,56,30.35,30.22,4,0,6,0.00
2013-4-17,82.4,69.9,58.2,64.0,61.3,57.0,98,76,51,30.25,30.14,3,0,6,0.00
2013-4-18,80.5,69.7,61.9,65.0,60.5,58.0,94,75,48,30.25,30.07,5,1,7,0.00
2013-4-19,82.0,70.2,63.4,68.0,64.3,60.0,98,83,59,30.07,29.71,6,2,12,0.94
2013-4-20,63.6,55.0,44.9,63.0,40.0,31.0,97,61,33,30.33,29.78,4,1,7,0.07
2013-4-21,57.7,49.5,40.9,42.0,33.3,28.0,88,55,39,30.61,30.34,5,1,10,0.00
2013-4-22,57.9,46.6,33.8,44.0,38.6,33.0,96,75,53,30.59,30.39,6,1,12,0.00
2013-4-23,60.6,51.4,45.6,49.0,45.3,43.0,94,80,61,30.39,30.18,6,1,10,0.00
2013-4-24,79.0,61.7,44.1,58.0,51.5,43.0,98,73,42,30.18,29.95,6,1,9,0.00
2013-4-25,65.6,58.4,49.5,57.0,41.0,32.0,85,55,30,30.33,30.01,5,1,10,0.00
2013-4-26,68.9,55.4,39.4,47.0,41.0,36.0,97,64,30,30.50,30.33,3,0,6,0.00
2013-4-27,73.5,59.8,47.9,48.0,43.9,41.0,89,59,32,30.46,30.32,2,0,4,0.00
2013-4-28,65.3,56.1,47.8,54.0,46.3,39.0,95,72,39,30.35,30.18,1,0,3,0.04
2013-4-29,64.2,58.6,54.1,62.0,57.7,53.0,99,97,89,30.18,30.04,1,0,2,0.98
2013-4-30,65.6,59.4,55.5,59.0,56.8,55.0,99,91,77,30.27,30.09,4,1,7,0.01